Franklin Park, IL

9:54 AM CDT en Octubre 31, 2014 (GMT -0500)
Du Page | Change Station
CLOSE
Current Station
Aeropuerto
Location: Chicago DuPage,
Altura: 758 ft
Estaciones meteorológicas cercanas

Alt 758 ft 41.90 °N, 88.25 °W | Updated 10 minutes ago

Muy nublado
Muy nublado
38 ° F
Sensación térmica 27 ° F
N
24
Viento Variable Viento desde NNO
Gusts 33 mph

Hoy
Alta -- | Baja -- ° F
--% Posibilidad de precipitaciones
Ayer
Alta -- | Baja -- ° F
Precip. -- pul
7:22 AM 5:46 PM
Cuarto creciente, 56% visible
Presión 30.15 pul
Visibilidad 10.0 Millas
Nubes Baja 2700 ft
Nublado 3400 ft
Vientos helados 27 ° F
Punto de rocío 28 ° F
Humedad 68%
Precipitaciones 0.00 pul
Espesor de la nieve No disponible.
UV 1 de una escala de 12
Polen .60 de una escala de 12
Calidad del aire No disponible.
Flu Activity No disponible.
SPECI KDPA 311444Z 33021G29KT 10SM FEW027 OVC034 03/M02 A3015 RMK AO2 PK WND 35030/1405 T00331022

More Conditions Fewer Conditions

Presión 30.15 pul
Visibilidad 10.0 Millas
Nubes Baja 2700 ft
Nublado 3400 ft
Vientos helados 27 ° F
Punto de rocío 28 ° F
Humedad 68%
Precipitaciones 0.00 pul
Espesor de la nieve No disponible.
UV 1 de una escala de 12
Polen .60 de una escala de 12
Calidad del aire No disponible.
Flu Activity No disponible.
SPECI KDPA 311444Z 33021G29KT 10SM FEW027 OVC034 03/M02 A3015 RMK AO2 PK WND 35030/1405 T00331022

More Conditions Fewer Conditions

10-Day Weather Forecast

Almanac

Astronomía

Oct. 31, 2014 Salida Puesta
Hora real
Crepúsculo civil
Crepúsculo náutico
Crepúsculo astronómico
Luna
Horas de luz
Horas de luz
Tomorrow will be .
, % of the Moon is Illuminated

Extremos de hoy

Máximos del estado Bajos del estado

Community

WunderPhotos

Upload Photos

1,766,625 ¡fotos cargadas!

WunderBlogs® & News

Nearby

Calidad del aire

  Calidad del aire Índice AQ Contaminante
Not available.

Grosos de nieve

Estación Profundido Altura

Actividad de terremotos

Ciudad Distance Mag. Tiempo y dato
Magnitud mínima muestra es 2,5.

Temperaturas de aguas costeras

Lugar Temperatura

Estaciones meteorológicas cercanas